Brentwood, NH

4:07 AM EDT on May 25, 2015 (GMT -0400)
Dalton Road | | Change Station
CLOSE
Current Station
Personal Weather Station
Location: Brentwood, NH
Elevation: 171 ft
Nearby Weather Stations

Elev 171 ft 42.98 °N, 71.07 °W | Updated 10 seconds ago

Mostly Cloudy
Mostly Cloudy
57.6 °F
Feels Like 57.6 °F
N
0.0
Wind Variable Wind from SW
Gusts 0.0 mph

Today
High -- | Low -- °F
--% Chance of Precip.
Yesterday
High -- | Low -- °F
Precip. -- in
5:12 AM 8:10 PM
Waxing Crescent, 46% visible
Pressure 30.18 in
Visibility 10.0 miles
Clouds Overcast 20000 ft
Dew Point 42 °F
Humidity 55%
Rainfall 0.00 in
Snow Depth Not available.
UV 0 out of 12
Pollen 10.50 out of 12
Air Quality Not available.
Flu Activity Sporadic
METAR KPSM 250758Z 25004KT 10SM OVC200 15/09 A3017 RMK AO2A SLP218 T01510088

More Conditions Fewer Conditions

Pressure 30.18 in
Visibility 10.0 miles
Clouds Overcast 20000 ft
Dew Point 42 °F
Humidity 55%
Rainfall 0.00 in
Snow Depth Not available.
UV 0 out of 12
Pollen 10.50 out of 12
Air Quality Not available.
Flu Activity Sporadic
METAR KPSM 250758Z 25004KT 10SM OVC200 15/09 A3017 RMK AO2A SLP218 T01510088

More Conditions Fewer Conditions

10-Day Weather Forecast

Almanac

Astronomy

May. 25, 2015 Rise Set
Actual Time
Civil Twilight
Nautical Twilight
Astronomical Twilight
Moon
Length of Visible Light
Length of Day
Tomorrow will be .
, % of the Moon is Illuminated

Today's Extremes

State Highs State Lows

Community

WunderPhotos

Upload Photos

1,823,959 photos uploaded!

WunderBlogs® & News

Nearby

Air Quality

  Air Quality AQ Index Pollutant
Not available.

Snow Depth

Station Depth Elevation

Earthquake Activity

City Distance Mag. Time & Date
Minimum magnitude displayed is 2.5.

Coastal Water Temperatures

Place Temperature

Stations

Nearby Weather Stations

Station Location Temp. Windchill Dew Point Humidity Wind Precip. Elev Updated Type